createdAt,value
2023-01-10T00:02:14.151Z,9.00
2023-01-10T00:04:42.817Z,11.00
2023-01-10T00:07:11.385Z,9.40
2023-01-10T00:09:39.972Z,9.40
2023-01-10T00:12:26.994Z,9.70
2023-01-10T00:14:55.472Z,9.90
2023-01-10T00:17:24.135Z,8.70
2023-01-10T00:19:52.695Z,9.40
2023-01-10T00:22:25.794Z,11.40
2023-01-10T00:24:54.322Z,9.10
2023-01-10T00:27:23.094Z,12.10
2023-01-10T00:29:52.795Z,9.40
2023-01-10T00:32:22.372Z,8.50
2023-01-10T00:34:50.977Z,11.20
2023-01-10T00:37:19.697Z,11.00
2023-01-10T00:39:48.253Z,9.20
2023-01-10T00:42:35.579Z,11.30
2023-01-10T00:45:04.378Z,11.50
2023-01-10T00:47:32.953Z,9.50
2023-01-10T00:50:01.552Z,10.50
2023-01-10T00:52:30.171Z,11.40
2023-01-10T00:54:58.657Z,10.20
2023-01-10T00:57:27.408Z,10.80
2023-01-10T00:59:55.995Z,11.10
2023-01-10T01:02:24.723Z,11.00
2023-01-10T01:04:53.539Z,10.20
2023-01-10T01:07:22.003Z,11.20
2023-01-10T01:10:09.165Z,11.70
2023-01-10T01:12:37.623Z,10.40
2023-01-10T01:15:07.265Z,9.30
2023-01-10T01:17:36.738Z,10.10
2023-01-10T01:20:06.983Z,10.00
2023-01-10T01:22:35.977Z,10.00
2023-01-10T01:25:05.059Z,11.00
2023-01-10T01:27:35.202Z,9.20
2023-01-10T01:30:06.206Z,11.10
2023-01-10T01:32:34.786Z,10.30
2023-01-10T01:35:04.254Z,11.10
2023-01-10T01:37:34.081Z,8.30
2023-01-10T01:40:02.763Z,10.90
2023-01-10T01:42:34.103Z,10.20
2023-01-10T01:45:08.669Z,7.90
2023-01-10T01:47:55.903Z,9.70
2023-01-10T01:50:47.145Z,9.60
2023-01-10T01:53:23.277Z,11.20
2023-01-10T01:55:55.922Z,9.90
2023-01-10T01:58:37.421Z,11.00
2023-01-10T02:01:06.037Z,12.30
2023-01-10T02:03:36.128Z,12.50
2023-01-10T02:06:05.108Z,10.10
2023-01-10T02:08:34.437Z,9.70
2023-01-10T02:11:10.146Z,8.40
2023-01-10T02:13:42.746Z,11.00
2023-01-10T02:16:12.102Z,8.90
2023-01-10T02:18:42.804Z,8.90
2023-01-10T02:21:39.271Z,11.10
2023-01-10T02:24:32.913Z,9.80
2023-01-10T02:27:13.371Z,10.30
2023-01-10T02:29:56.986Z,12.40
2023-01-10T02:32:45.865Z,15.40
2023-01-10T02:35:54.796Z,17.30
2023-01-10T02:38:45.004Z,13.00
2023-01-10T02:41:28.164Z,11.90
2023-01-10T02:44:12.435Z,11.90
2023-01-10T02:46:41.782Z,8.90
2023-01-10T02:49:10.450Z,8.60
2023-01-10T02:51:39.011Z,7.70
2023-01-10T02:54:14.129Z,8.20
2023-01-10T02:57:18.371Z,8.40
2023-01-10T02:59:59.840Z,10.00
2023-01-10T03:02:49.811Z,8.00
2023-01-10T03:05:37.852Z,8.40
2023-01-10T03:08:24.585Z,7.30
2023-01-10T03:10:58.789Z,8.00
2023-01-10T03:14:01.273Z,8.40
2023-01-10T03:16:33.830Z,7.30
2023-01-10T03:19:09.322Z,8.60
2023-01-10T03:21:41.257Z,7.40
2023-01-10T03:24:17.809Z,7.30
2023-01-10T03:27:03.098Z,6.60
2023-01-10T03:29:59.895Z,7.20
2023-01-10T03:32:31.970Z,7.80
2023-01-10T03:35:01.694Z,7.00
2023-01-10T03:37:36.121Z,10.20
2023-01-10T03:40:27.323Z,8.30
2023-01-10T03:43:44.144Z,9.70
2023-01-10T03:46:22.889Z,7.40
2023-01-10T03:48:51.804Z,6.90
2023-01-10T03:51:21.129Z,9.00
2023-01-10T03:53:49.862Z,8.20
2023-01-10T03:56:18.367Z,8.10
2023-01-10T03:58:46.923Z,7.80
2023-01-10T04:01:15.589Z,7.10
2023-01-10T04:03:44.276Z,6.80
2023-01-10T04:06:12.853Z,8.80
2023-01-10T04:08:41.389Z,7.30
2023-01-10T04:11:09.890Z,8.40
2023-01-10T04:13:38.403Z,8.50
2023-01-10T04:16:07.478Z,6.30
2023-01-10T04:18:36.283Z,7.70
2023-01-10T04:21:04.952Z,8.70
2023-01-10T04:23:33.775Z,8.10
2023-01-10T04:26:02.288Z,7.20
2023-01-10T04:28:30.771Z,8.30
2023-01-10T04:31:00.137Z,7.70
2023-01-10T04:33:28.798Z,7.60
2023-01-10T04:35:57.317Z,18.70
2023-01-10T04:38:25.874Z,12.10
2023-01-10T04:40:56.674Z,8.30
2023-01-10T04:43:26.122Z,7.70
2023-01-10T04:45:54.813Z,5.80
2023-01-10T04:48:23.409Z,13.80
2023-01-10T04:50:53.263Z,6.70
2023-01-10T04:53:22.944Z,8.10
2023-01-10T04:55:51.525Z,6.40
2023-01-10T04:58:20.295Z,8.10
2023-01-10T05:00:48.836Z,6.30
2023-01-10T05:03:20.502Z,19.70
2023-01-10T05:05:49.001Z,9.40
2023-01-10T05:08:17.468Z,8.80
2023-01-10T05:10:45.973Z,13.30
2023-01-10T05:13:14.457Z,12.30
2023-01-10T05:15:42.964Z,9.10
2023-01-10T05:18:11.589Z,9.30
2023-01-10T05:20:40.058Z,7.30
2023-01-10T05:23:08.712Z,6.80
2023-01-10T05:25:37.237Z,7.80
2023-01-10T05:28:05.774Z,7.50
2023-01-10T05:30:34.411Z,8.70
2023-01-10T05:33:07.071Z,8.30
2023-01-10T05:35:35.675Z,9.60
2023-01-10T05:38:04.263Z,10.00
2023-01-10T05:40:32.826Z,12.70
2023-01-10T05:43:01.409Z,11.90
2023-01-10T05:45:29.982Z,11.70
2023-01-10T05:47:58.599Z,11.60
2023-01-10T05:50:27.186Z,13.50
2023-01-10T05:53:06.059Z,9.70
2023-01-10T05:55:34.675Z,7.80
2023-01-10T05:58:03.831Z,7.10
2023-01-10T06:00:32.686Z,7.70
2023-01-10T06:03:01.551Z,7.80
2023-01-10T06:05:30.153Z,8.30
2023-01-10T06:07:58.733Z,7.10
2023-01-10T06:10:27.382Z,6.90
2023-01-10T06:12:55.963Z,6.60
2023-01-10T06:15:24.584Z,8.80
2023-01-10T06:17:53.042Z,7.70
2023-01-10T06:20:21.503Z,6.80
2023-01-10T06:22:50.156Z,5.80
2023-01-10T06:25:18.709Z,7.60
2023-01-10T06:27:47.214Z,5.50
2023-01-10T06:30:15.989Z,7.90
2023-01-10T06:32:44.461Z,6.10
2023-01-10T06:35:13.172Z,7.30
2023-01-10T06:37:41.840Z,7.40
2023-01-10T06:40:11.327Z,5.20
2023-01-10T06:42:41.665Z,6.70
2023-01-10T06:45:11.695Z,6.40
2023-01-10T06:47:40.244Z,7.50
2023-01-10T06:50:10.254Z,7.20
2023-01-10T06:52:38.840Z,7.60
2023-01-10T06:55:07.834Z,6.30
2023-01-10T06:57:38.644Z,6.80
2023-01-10T07:00:10.215Z,10.00
2023-01-10T07:02:38.755Z,8.90
2023-01-10T07:05:09.413Z,7.20
2023-01-10T07:07:39.823Z,8.30
2023-01-10T07:10:09.544Z,6.40
2023-01-10T07:12:38.095Z,6.80
2023-01-10T07:15:07.781Z,6.60
2023-01-10T07:17:36.336Z,5.70
2023-01-10T07:20:05.498Z,6.30
2023-01-10T07:22:34.071Z,7.20
2023-01-10T07:25:02.528Z,6.30
2023-01-10T07:27:32.755Z,7.70
2023-01-10T07:30:01.382Z,6.60
2023-01-10T07:32:29.919Z,5.50
2023-01-10T07:34:58.405Z,6.80
2023-01-10T07:37:26.969Z,5.50
2023-01-10T07:39:56.522Z,4.80
2023-01-10T07:42:25.052Z,6.10
2023-01-10T07:44:53.615Z,6.10
2023-01-10T07:47:22.502Z,5.90
2023-01-10T07:49:51.127Z,7.20
2023-01-10T07:52:19.782Z,7.00
2023-01-10T07:54:48.268Z,7.40
2023-01-10T07:57:16.965Z,4.90
2023-01-10T07:59:45.799Z,7.20
2023-01-10T08:02:14.682Z,5.60
2023-01-10T08:04:43.356Z,6.00
2023-01-10T08:07:11.891Z,6.90
2023-01-10T08:09:40.765Z,6.90
2023-01-10T08:12:09.404Z,5.30
2023-01-10T08:14:38.074Z,5.90
2023-01-10T08:17:06.640Z,8.30
2023-01-10T08:19:35.107Z,6.70
2023-01-10T08:22:03.791Z,7.00
2023-01-10T08:24:32.421Z,6.80
2023-01-10T08:27:01.579Z,6.30
2023-01-10T08:29:30.166Z,7.60
2023-01-10T08:31:58.702Z,8.20
2023-01-10T08:34:27.236Z,8.20
2023-01-10T08:36:55.822Z,7.20
2023-01-10T08:39:27.214Z,7.40
2023-01-10T08:41:55.816Z,6.00
2023-01-10T08:44:24.333Z,8.80
2023-01-10T08:46:53.176Z,8.80
2023-01-10T08:49:22.444Z,8.00
2023-01-10T08:51:50.992Z,6.70
2023-01-10T08:54:19.754Z,7.00
2023-01-10T08:56:48.247Z,6.10
2023-01-10T08:59:16.806Z,7.00
2023-01-10T09:01:45.372Z,8.80
2023-01-10T09:04:14.530Z,6.50
2023-01-10T09:06:43.441Z,5.90
2023-01-10T09:09:11.924Z,7.60
2023-01-10T09:11:42.037Z,8.90
2023-01-10T09:14:10.539Z,12.20
2023-01-10T09:16:39.425Z,8.60
2023-01-10T09:19:08.099Z,7.10
2023-01-10T09:21:36.592Z,7.70
2023-01-10T09:24:05.371Z,8.20
2023-01-10T09:26:33.967Z,8.60
2023-01-10T09:29:02.490Z,7.90
2023-01-10T09:31:31.101Z,11.70
2023-01-10T09:33:59.687Z,8.10
2023-01-10T09:36:28.245Z,9.80
2023-01-10T09:38:56.781Z,10.10
2023-01-10T09:41:44.275Z,9.10
2023-01-10T09:44:40.089Z,9.40
2023-01-10T09:47:34.814Z,9.60
2023-01-10T09:50:22.883Z,10.30
2023-01-10T09:52:57.452Z,11.00
2023-01-10T09:55:39.100Z,8.10
2023-01-10T09:58:17.150Z,9.20
2023-01-10T10:00:52.092Z,7.20
2023-01-10T10:03:58.219Z,6.10
2023-01-10T10:06:26.769Z,8.20
2023-01-10T10:08:57.540Z,8.60
2023-01-10T10:11:26.044Z,9.30
2023-01-10T10:14:04.022Z,6.60
2023-01-10T10:17:01.096Z,8.00
2023-01-10T10:19:29.615Z,8.20
2023-01-10T10:22:26.387Z,8.10
2023-01-10T10:25:04.032Z,8.60
2023-01-10T10:27:37.011Z,8.30
2023-01-10T10:30:32.556Z,7.20
2023-01-10T10:33:19.569Z,9.10
2023-01-10T10:36:09.219Z,6.20
2023-01-10T10:38:43.784Z,7.80
2023-01-10T10:41:22.308Z,7.10
2023-01-10T10:43:53.052Z,8.50
2023-01-10T10:46:22.673Z,8.70
2023-01-10T10:48:59.374Z,8.40
2023-01-10T10:51:37.435Z,8.80
2023-01-10T10:54:07.851Z,11.80
2023-01-10T10:56:36.321Z,8.20
2023-01-10T10:59:05.721Z,10.20
2023-01-10T11:01:34.446Z,11.60
2023-01-10T11:04:13.250Z,13.60
2023-01-10T11:06:49.080Z,7.90
2023-01-10T11:09:41.078Z,8.70
2023-01-10T11:12:18.777Z,8.80
2023-01-10T11:14:52.605Z,10.10
2023-01-10T11:17:29.676Z,7.70
2023-01-10T11:20:16.040Z,6.50
2023-01-10T11:22:49.988Z,6.90
2023-01-10T11:25:21.471Z,6.50
2023-01-10T11:27:56.190Z,7.10
2023-01-10T11:30:31.300Z,8.40
2023-01-10T11:33:06.302Z,6.60
2023-01-10T11:35:38.359Z,8.00
2023-01-10T11:38:16.498Z,6.40
2023-01-10T11:41:04.837Z,6.70
2023-01-10T11:43:41.554Z,6.40
2023-01-10T11:46:17.767Z,7.90
2023-01-10T11:49:08.841Z,8.60
2023-01-10T11:51:45.016Z,10.40
2023-01-10T11:54:16.106Z,9.20
2023-01-10T11:57:03.393Z,11.00
2023-01-10T11:59:33.260Z,10.10
2023-01-10T12:02:12.631Z,7.50
2023-01-10T12:04:45.042Z,8.00
2023-01-10T12:07:14.128Z,7.80
2023-01-10T12:09:45.484Z,7.80
2023-01-10T12:12:27.635Z,7.50
2023-01-10T12:14:58.742Z,7.60
2023-01-10T12:17:31.727Z,7.50
2023-01-10T12:20:04.550Z,6.60
2023-01-10T12:22:48.846Z,6.80
2023-01-10T12:25:43.392Z,6.80
2023-01-10T12:28:23.996Z,7.60
2023-01-10T12:30:55.650Z,8.40
2023-01-10T12:33:33.371Z,8.10
2023-01-10T12:36:23.518Z,7.90
2023-01-10T12:39:21.240Z,5.70
2023-01-10T12:42:30.313Z,6.40
2023-01-10T12:45:03.635Z,9.60
2023-01-10T12:47:50.946Z,7.90
2023-01-10T12:50:26.206Z,18.20
2023-01-10T12:53:00.656Z,11.20
2023-01-10T12:55:35.350Z,14.10
2023-01-10T12:58:05.807Z,8.10
2023-01-10T13:00:48.300Z,11.60
2023-01-10T13:03:23.907Z,7.50
2023-01-10T13:05:54.454Z,79.30
2023-01-10T13:08:27.118Z,49.70
2023-01-10T13:10:59.367Z,14.80
2023-01-10T13:13:37.983Z,14.10
2023-01-10T13:16:33.531Z,12.60
2023-01-10T13:19:06.796Z,13.40
2023-01-10T13:21:36.744Z,8.60
2023-01-10T13:24:19.839Z,7.40
2023-01-10T13:27:03.732Z,8.60
2023-01-10T13:29:39.681Z,7.70
2023-01-10T13:32:24.532Z,8.50
2023-01-10T13:34:53.776Z,9.30
2023-01-10T13:37:32.090Z,10.40
2023-01-10T13:40:02.147Z,7.50
2023-01-10T13:42:52.538Z,8.60
2023-01-10T13:45:28.817Z,8.20
2023-01-10T13:48:00.634Z,7.00
2023-01-10T13:50:38.821Z,8.60
2023-01-10T13:53:08.881Z,6.20
2023-01-10T13:55:42.761Z,6.00
2023-01-10T13:58:14.426Z,6.40
2023-01-10T14:01:05.434Z,6.90
2023-01-10T14:03:56.034Z,5.90
2023-01-10T14:06:31.751Z,9.20
2023-01-10T14:09:23.213Z,10.50
2023-01-10T14:12:02.912Z,11.50
2023-01-10T14:14:42.844Z,8.90
2023-01-10T14:17:15.988Z,8.10
2023-01-10T14:19:48.188Z,8.10
2023-01-10T14:22:32.333Z,6.20
2023-01-10T14:25:06.863Z,6.30
2023-01-10T14:27:47.533Z,8.50
2023-01-10T14:30:33.192Z,8.10
2023-01-10T14:33:13.946Z,7.60
2023-01-10T14:35:48.191Z,11.00
2023-01-10T14:38:44.806Z,7.20
2023-01-10T14:41:19.779Z,9.10
2023-01-10T14:44:01.233Z,7.60
2023-01-10T14:46:45.344Z,13.30
2023-01-10T14:49:35.514Z,11.50
2023-01-10T14:52:24.452Z,12.10
2023-01-10T14:55:04.924Z,7.50
2023-01-10T14:57:33.485Z,10.20
2023-01-10T15:00:26.801Z,9.60
2023-01-10T15:02:56.039Z,7.10
2023-01-10T15:05:27.994Z,7.40
2023-01-10T15:08:23.461Z,7.40
2023-01-10T15:10:57.098Z,6.50
2023-01-10T15:13:28.795Z,7.80
2023-01-10T15:15:59.212Z,7.60
2023-01-10T15:18:36.487Z,10.60
2023-01-10T15:21:06.702Z,11.40
2023-01-10T15:23:41.240Z,15.20
2023-01-10T15:26:16.617Z,14.90
2023-01-10T15:28:50.048Z,10.80
2023-01-10T15:31:18.832Z,14.00
2023-01-10T15:33:56.859Z,12.80
2023-01-10T15:36:29.539Z,27.50
2023-01-10T15:38:58.039Z,25.10
2023-01-10T15:41:27.235Z,15.70
2023-01-10T15:43:55.739Z,10.60
2023-01-10T15:46:28.660Z,13.50
2023-01-10T15:49:03.172Z,14.50
2023-01-10T15:51:41.911Z,13.90
2023-01-10T15:54:19.353Z,14.80
2023-01-10T15:56:50.903Z,12.90
2023-01-10T15:59:27.651Z,17.40
2023-01-10T16:02:17.171Z,21.00
2023-01-10T16:04:46.922Z,19.80
2023-01-10T16:07:41.321Z,15.10
2023-01-10T16:10:27.453Z,13.60
2023-01-10T16:13:28.949Z,14.70
2023-01-10T16:16:05.643Z,15.90
2023-01-10T16:18:34.644Z,18.70
2023-01-10T16:21:06.381Z,20.80
2023-01-10T16:23:37.829Z,17.40
2023-01-10T16:26:09.479Z,15.60
2023-01-10T16:28:38.444Z,13.00
2023-01-10T16:31:12.105Z,16.10
2023-01-10T16:33:41.548Z,31.90
2023-01-10T16:36:18.293Z,16.40
2023-01-10T16:38:47.248Z,14.30
2023-01-10T16:41:35.206Z,16.90
2023-01-10T16:44:03.865Z,28.10
2023-01-10T16:46:32.856Z,16.30
2023-01-10T16:49:01.459Z,24.30
2023-01-10T16:51:32.957Z,26.60
2023-01-10T16:54:01.966Z,24.10
2023-01-10T16:56:30.934Z,28.10
2023-01-10T16:58:59.555Z,30.30
2023-01-10T17:01:34.473Z,26.50
2023-01-10T17:04:06.932Z,26.00
2023-01-10T17:06:36.282Z,26.30
2023-01-10T17:09:04.742Z,25.60
2023-01-10T17:11:41.044Z,19.60
2023-01-10T17:14:15.098Z,17.90
2023-01-10T17:16:44.221Z,13.50
2023-01-10T17:19:12.697Z,13.20
2023-01-10T17:21:41.510Z,13.80
2023-01-10T17:24:12.077Z,16.10
2023-01-10T17:26:40.565Z,12.40
2023-01-10T17:29:09.171Z,9.40
2023-01-10T17:31:37.919Z,11.60
2023-01-10T17:34:06.409Z,10.80
2023-01-10T17:36:39.045Z,19.60
2023-01-10T17:39:07.858Z,50.30
2023-01-10T17:41:36.816Z,33.30
2023-01-10T17:44:05.601Z,19.40
2023-01-10T17:46:34.419Z,13.20
2023-01-10T17:49:03.407Z,10.00
2023-01-10T17:51:31.990Z,10.80
2023-01-10T17:54:00.520Z,9.40
2023-01-10T17:56:29.206Z,11.20
2023-01-10T17:58:57.905Z,9.40
2023-01-10T18:01:26.743Z,9.40
2023-01-10T18:03:55.516Z,11.30
2023-01-10T18:06:25.075Z,9.70
2023-01-10T18:08:54.516Z,9.10
2023-01-10T18:11:25.384Z,9.50
2023-01-10T18:13:55.271Z,8.70
2023-01-10T18:16:26.341Z,11.30
2023-01-10T18:18:56.770Z,10.20
2023-01-10T18:21:26.475Z,9.30
2023-01-10T18:23:59.731Z,8.80
2023-01-10T18:26:28.347Z,9.40
2023-01-10T18:28:56.864Z,11.60
2023-01-10T18:31:26.017Z,7.40
2023-01-10T18:33:54.687Z,11.00
2023-01-10T18:36:24.840Z,9.30
2023-01-10T18:38:53.727Z,9.60
2023-01-10T18:41:22.473Z,8.80
2023-01-10T18:43:51.045Z,8.70
2023-01-10T18:46:22.587Z,10.90
2023-01-10T18:48:52.883Z,14.20
2023-01-10T18:51:22.949Z,13.30
2023-01-10T18:53:53.207Z,13.10
2023-01-10T18:56:21.962Z,14.40
2023-01-10T18:58:50.699Z,16.80
2023-01-10T19:01:22.435Z,24.10
2023-01-10T19:03:51.806Z,17.60
2023-01-10T19:06:22.898Z,16.90
2023-01-10T19:08:52.233Z,12.60
2023-01-10T19:11:20.952Z,14.20
2023-01-10T19:13:52.437Z,11.00
2023-01-10T19:16:26.603Z,13.80
2023-01-10T19:18:58.027Z,15.90
2023-01-10T19:21:28.641Z,13.70
2023-01-10T19:24:01.647Z,9.00
2023-01-10T19:26:30.761Z,11.10
2023-01-10T19:28:59.371Z,11.90
2023-01-10T19:31:29.330Z,12.10
2023-01-10T19:34:02.521Z,12.40
2023-01-10T19:36:35.027Z,11.20
2023-01-10T19:39:05.605Z,11.70
2023-01-10T19:41:37.645Z,10.50
2023-01-10T19:44:11.210Z,10.20
2023-01-10T19:46:41.087Z,10.50
2023-01-10T19:49:13.789Z,10.10
2023-01-10T19:51:42.445Z,10.00
2023-01-10T19:54:12.764Z,9.90
2023-01-10T19:56:41.268Z,10.80
2023-01-10T19:59:10.327Z,11.20
2023-01-10T20:01:38.890Z,10.10
2023-01-10T20:04:07.528Z,10.90
2023-01-10T20:06:39.375Z,11.50
2023-01-10T20:09:10.965Z,10.50
2023-01-10T20:11:42.068Z,8.50
2023-01-10T20:14:19.004Z,9.80
2023-01-10T20:16:49.219Z,9.30
2023-01-10T20:19:17.789Z,11.00
2023-01-10T20:21:46.665Z,10.90
2023-01-10T20:24:18.754Z,10.20
2023-01-10T20:26:49.884Z,9.50
2023-01-10T20:29:19.945Z,10.60
2023-01-10T20:31:53.030Z,14.80
2023-01-10T20:34:23.202Z,12.20
2023-01-10T20:36:54.307Z,12.50
2023-01-10T20:39:25.783Z,14.30
2023-01-10T20:41:54.325Z,10.50
2023-01-10T20:44:22.851Z,9.60
2023-01-10T20:46:51.455Z,11.20
2023-01-10T20:49:20.136Z,10.50
2023-01-10T20:51:50.199Z,11.90
2023-01-10T20:54:18.815Z,11.70
2023-01-10T20:56:47.337Z,11.90
2023-01-10T20:59:15.857Z,9.90
2023-01-10T21:01:44.422Z,9.30
2023-01-10T21:04:12.988Z,10.20
2023-01-10T21:06:41.565Z,11.20
2023-01-10T21:09:10.397Z,12.50
2023-01-10T21:11:56.579Z,10.70
2023-01-10T21:14:27.535Z,9.90
2023-01-10T21:16:56.083Z,8.20
2023-01-10T21:19:24.561Z,7.40
2023-01-10T21:21:53.119Z,10.80
2023-01-10T21:24:23.186Z,11.10
2023-01-10T21:26:51.681Z,8.90
2023-01-10T21:29:20.237Z,9.20
2023-01-10T21:31:52.422Z,8.50
2023-01-10T21:34:21.987Z,10.90
2023-01-10T21:36:51.636Z,13.20
2023-01-10T21:39:20.474Z,10.50
2023-01-10T21:42:07.515Z,10.30
2023-01-10T21:44:35.996Z,11.80
2023-01-10T21:47:04.587Z,9.80
2023-01-10T21:49:33.148Z,7.40
2023-01-10T21:52:01.738Z,8.80
2023-01-10T21:54:31.340Z,10.10
2023-01-10T21:56:59.916Z,9.70
2023-01-10T21:59:28.380Z,9.40
2023-01-10T22:01:56.845Z,8.60
2023-01-10T22:04:25.781Z,8.90
2023-01-10T22:06:54.433Z,6.70
2023-01-10T22:09:25.411Z,8.20
2023-01-10T22:11:54.091Z,7.40
2023-01-10T22:14:22.514Z,8.10
2023-01-10T22:16:51.192Z,8.00
2023-01-10T22:19:19.804Z,9.90
2023-01-10T22:21:48.255Z,6.90
2023-01-10T22:24:16.788Z,7.90
2023-01-10T22:26:45.262Z,6.10
2023-01-10T22:29:13.792Z,9.50
2023-01-10T22:31:43.024Z,6.90
2023-01-10T22:34:11.465Z,7.40
2023-01-10T22:36:39.930Z,5.80
2023-01-10T22:39:09.618Z,9.60
2023-01-10T22:41:39.268Z,8.30
2023-01-10T22:44:08.196Z,9.90
2023-01-10T22:46:36.791Z,6.60
2023-01-10T22:49:05.277Z,7.10
2023-01-10T22:51:35.832Z,7.40
2023-01-10T22:54:04.928Z,7.30
2023-01-10T22:56:33.479Z,7.70
2023-01-10T22:59:01.954Z,7.50
2023-01-10T23:01:30.531Z,7.00
2023-01-10T23:03:59.152Z,7.70
2023-01-10T23:06:28.039Z,6.10
2023-01-10T23:08:57.310Z,6.90
2023-01-10T23:11:25.900Z,9.90
2023-01-10T23:13:54.381Z,7.70
2023-01-10T23:16:31.040Z,8.50
2023-01-10T23:19:00.666Z,9.50
2023-01-10T23:21:29.620Z,9.90
2023-01-10T23:23:58.384Z,8.10
2023-01-10T23:26:27.156Z,9.70
2023-01-10T23:28:55.733Z,8.10
2023-01-10T23:31:25.597Z,8.70
2023-01-10T23:33:54.664Z,9.10
2023-01-10T23:36:24.132Z,7.40
2023-01-10T23:38:53.137Z,8.80
2023-01-10T23:41:21.580Z,7.40
2023-01-10T23:43:51.235Z,9.90
2023-01-10T23:46:20.697Z,9.30
2023-01-10T23:48:49.188Z,10.40
2023-01-10T23:51:17.637Z,9.40
2023-01-10T23:53:46.359Z,9.50
2023-01-10T23:56:15.596Z,7.70
2023-01-10T23:58:44.045Z,9.50
